Share

Abraham, UT

7:14 PM MDT on April 23, 2014 (GMT -0600)
Oak City (KUTOAKCI1) Elev 5135 ft | 39.37 °N, 112.33 °W | Change Station

Current weather conditions updated 4 minutes ago

Clear
Clear
51.0 °F
Feels Like 51.0 °F
N
3.0
Wind Variable Wind from North
Gusts 5.0 mph
Sunrise 6:42 AM
Sunset 8:16 PM
Moon Waning Crescent

Tomorrow is forecast to be Much Warmer than today.

Pressure 29.93 in
Visibility 10.0 miles
Clouds Clear
Dew Point 13 °F
Humidity 22%
Rainfall 0.00 in
Snow Depth Not available.
UV 1 out of 16
Pollen 9.00 out of 12
Air Quality Not available.
Flu Activity Local Activity
METAR KMLF 240052Z AUTO 03009KT 10SM CLR 13/M12 A2999 RMK AO2 SLP134 T01331122

More Conditions Fewer Conditions

Pressure 29.93 in
Visibility 10.0 miles
Clouds Clear
Dew Point 13 °F
Humidity 22%
Rainfall 0.00 in
Snow Depth Not available.
UV 1 out of 16
Pollen 9.00 out of 12
Air Quality Not available.
Flu Activity Local Activity
METAR KMLF 240052Z AUTO 03009KT 10SM CLR 13/M12 A2999 RMK AO2 SLP134 T01331122

More Conditions Fewer Conditions

10-Day Weather Forecast

Almanac

Astronomy

Apr. 23, 2014 Rise Set
Actual Time 6:42 AM MDT 8:16 PM MDT
Civil Twilight 6:14 AM MDT 8:44 PM MDT
Nautical Twilight 5:39 AM MDT 9:19 PM MDT
Astronomical Twilight 5:03 AM MDT 9:55 PM MDT
Moon 3:14 AM MDT (4/23) 2:31 PM MDT (4/23)
Length of Visible Light 14h 30m
Length of Day
13h 34m
Tomorrow will be 2m 21s longer.
Waning Crescent, 31% of the Moon is Illuminated
Today
Waning Crescent
Apr 29
New
May 6
First Quarter
May 14
Full
May 21
Last Quarter

Today's Extremes

State Highs State Lows

Community

  • Nestled In
    Nestled In
  • Stunning Sunrise
    Stunning Sunrise
  • spring flowers
    spring flowers
  • Earth Day Spectrum Ove' Blue
    Earth Day Spectrum Ove' Blue
  • BARN B&W
    BARN B&W

WunderPhotos

Upload Photos

1,704,485 photos uploaded!

Nearby

Snow Depth

Station Depth Elevation
Pine Creek 14 in 8800 ft
Kimberly Mine 13 in 9300 ft
Pickle Keg 14 in 9600 ft
Gooseberry R.S. 0 in 7920 ft
Seeley Creek 22 in 10000 ft

Coastal Water Temperatures

Place Temperature
No Stations Reporting

Earthquake Activity

City Distance Mag. Time & Date
Tooele, Utah 88 miles 3.2 9:22 PM MDT
2014-04-19
Minimum magnitude displayed is 2.5.

Nearby Weather Stations

Station Location Temp. Dew Point Humidity Wind Precip. Elev Updated Type
HCN DELTA AIRPORT DELTA 4 NE UT , Delta, UT 54 °F - - North  at  - 0.00 in / hr 4761 ft 6:25 PM MDT MADIS
Oak City, Oak City, UT 51.0 °F 13 °F 22% North  at  3.0 mph 0.00 in / hr 5135 ft 7:10 PM MDT Normal
MesoWest HOLDEN , Holden, UT 54 °F 9 °F 16% NW  at  8 mph 0.00 in / hr 4741 ft 6:00 PM MDT MADIS

Show More Stations Show Fewer Stations

What do you think?

We're not finished. Please let us know what you like, what you don't like, and what you are still missing.